Tiempo atmosférico en la estación meteorológica de El Paso, Santa Cruz de Tenerife (844 m.)



Fecha
DESCASC
Temp. máxima en grados centígrados (hora)
DESCASC
Temp. mínima en grados centígrados (hora)
DESCASC
Temp. media en grados centígrados
DESCASC
Racha de viento máxima en m/sg (hora)
DESCASC
Velocidad máxima media en intervalos de 10 minutos(hora)
DESCASC
Precipitaciones diarias en mm
DESCASC
Precipitaciones de 00:00 a 06:00 en mm
DESCASC
Precipitaciones de 06:00 a 12:00 en mm
DESCASC
Precipitaciones de 12:00 a 18:00 en mm
DESCASC
Precipitaciones de 18:00 a 24:00 en mm
DESCASC
23-05-2018 17.3 (16:50) 8 (07:30) 12.6 8.06 (16:30) 5.28 (20:50) 0 0 0 0 0
22-05-2018 20.9 (16:10) 6.8 (06:20) 13.8 11.94 (16:40) 8.06 (19:20) 0 0 0 0 0
21-05-2018 17 (12:10) 7.1 (06:30) 12 6.94 (12:50) 4.17 (12:50) 0 0 0 0 0
20-05-2018 17.6 (13:20) 10.1 (00:00) 13.9 9.44 (13:50) 5.28 (04:10) 0 0 0 0 0
19-05-2018 15.2 (12:30) 7.6 (07:40) 11.4 8.33 (12:10) 5.28 (12:20) 0 0 0 0 0
18-05-2018 15.5 (13:10) 9.3 (00:00) 12.4 8.61 (14:20) 5 (14:20) 0 0 0 0 0
17-05-2018 16.3 (11:00) 7.4 (00:00) 11.8 7.78 (14:00) 4.72 (14:00) 0 0 0 0 0
16-05-2018 17.8 (12:30) 8.5 (00:00) 13.1 10 (05:40) 5 (13:50) 0 0 0 0 0
15-05-2018 17.6 (19:00) 9.3 (00:00) 13.5 14.17 (11:50) 8.61 (17:10) 0 0 0 0 0
14-05-2018 20.4 (16:10) 9.9 (00:00) 15.1 15.28 (08:30) 8.61 (08:30) 0 0 0 0 0
13-05-2018 16.9 (17:20) 9.6 (00:00) 13.3 18.89 (00:10) 11.39 (08:20) 0 0 0 0 0
12-05-2018 16 (13:00) 11.1 (00:00) 13.6 21.39 (09:30) 12.5 (07:00) 0 0 0 0 0
11-05-2018 18.6 (16:10) 7.9 (05:10) 13.3 18.33 (17:20) 8.06 (23:50) 0 0 0 0 0
10-05-2018 18.4 (13:40) 8.5 (00:00) 13.4 12.78 (00:10) 7.22 (00:10) 0 0 0 0 0
09-05-2018 17.9 (14:30) 8.1 (00:00) 13 12.5 (17:00) 7.78 (23:40) 0 0 0 0 0
08-05-2018 16 (16:00) 7.9 (00:00) 12 6.67 (09:20) 3.33 (00:10) 0 0 0 0 0
07-05-2018 15.4 (11:10) 7.9 (00:00) 11.6 7.5 (23:50) 4.17 (23:50) 0 0 0 0 0
06-05-2018 15.2 (11:20) 8.1 (00:00) 11.7 7.78 (12:00) 3.33 (11:50) 0 0 0 0 0
05-05-2018 15 (10:50) 9.2 (00:00) 12.1 9.72 (04:20) 4.72 (11:20) 0 0 0 0 0
04-05-2018 15.6 (12:10) 9.5 (00:00) 12.6 12.5 (13:50) 6.67 (12:20) 0 0 0 0 0
03-05-2018 15.8 (12:10) 6.9 (00:00) 11.4 10.28 (22:10) 5 (22:10) 0.2 0.2 0 0 0
02-05-2018 14.9 (10:50) 8 (00:00) 11.4 7.22 (17:30) 4.44 (15:40) 1 0 0 1 0
01-05-2018 17.8 (12:20) 4.9 (07:00) 11.3 10.28 (13:30) 4.17 (13:30) 0 0 0 0 0
30-04-2018 13 (15:30) 7.4 (00:00) 10.2 9.72 (00:40) 5.28 (00:40) 0 0 0 0 0
29-04-2018 14.2 (13:30) 9.3 (00:00) 11.8 15.28 (10:10) 8.61 (11:20) 0 0 0 0 0
28-04-2018 18.6 (11:20) 8.6 (00:00) 13.6 11.67 (00:50) 6.67 (01:00) 0 0 0 0 0

Gráficas

Temp. máximas Temp. mínimas Temp. medias Precipitaciones Rachas de viento máximas Velocidades máximas media en intervalos de 10 minutos

Datos horarios

Fecha y hora oficial Temperatura (ºC) Velocidad del viento (km/h) Dirección del viento Racha (km/h) Dirección de racha Precipitación (mm) Presión (hPa) Tendencia (hPa) Humedad (%)
2018-05-27 23:00:00 -- -- -- -- -- -- -- -- --
2018-05-27 22:00:00 -- -- -- -- -- -- -- -- --
2018-05-27 21:00:00 11.5 17 Este 27 Este 0 -- -- 84
2018-05-27 20:00:00 12.6 13 Sudeste 30 Sudeste 0 -- -- 80
2018-05-27 19:00:00 12.6 18 Sudeste 33 Este 0 -- -- 79
2018-05-27 18:00:00 13 15 Este 25 Este 0 -- -- 80
2018-05-27 17:00:00 13.7 4 Nordeste 15 Oeste 0 -- -- 77
2018-05-27 16:00:00 14.3 5 Oeste 12 Oeste 0 -- -- 78
2018-05-27 15:00:00 14.2 3 Oeste 13 Oeste 0 -- -- 78
2018-05-27 14:00:00 13.9 6 Noroeste 18 Oeste 0 -- -- 79
2018-05-27 13:00:00 13.7 10 Oeste 21 Oeste 0 -- -- 79
2018-05-27 12:00:00 13.7 11 Oeste 20 Oeste 0 -- -- 79
2018-05-27 11:00:00 13.2 9 Sudeste 17 Sudeste 0 -- -- 78
2018-05-27 10:00:00 13.3 2 Este 6 Este 0 -- -- 75
2018-05-27 09:00:00 11.7 2 Nordeste 10 Este 0 -- -- 81
2018-05-27 08:00:00 10.1 5 Este 10 Este 0 -- -- 86
2018-05-27 07:00:00 9.7 3 Este 8 Sudeste 0 -- -- 90
2018-05-27 06:00:00 8.4 4 Este 8 Este 0 -- -- 93
2018-05-27 05:00:00 6.9 6 Este 10 Este 0 -- -- 92
2018-05-27 04:00:00 7.8 6 Este 10 Este 0 -- -- 88
2018-05-27 03:00:00 8.2 5 Este 9 Este 0 -- -- 90
2018-05-27 02:00:00 8.4 4 Este 9 Este 0 -- -- 88
2018-05-27 01:00:00 9.1 3 Este 9 Este 0 -- -- 87
2018-05-27 00:00:00 9.9 5 Este 8 Este 0 -- -- 85
2018-05-26 23:00:00 11.7 0 Calma 4 Este 0 -- -- 84
2018-05-26 22:00:00 12.9 3 Oeste 10 Oeste 0 -- -- 83
2018-05-26 21:00:00 13.6 7 Oeste 12 Noroeste 0 -- -- 80
2018-05-26 20:00:00 14.5 6 Noroeste 17 Oeste 0 -- -- 74
2018-05-26 19:00:00 14.9 6 Norte 9 Norte 0 -- -- 72
2018-05-26 18:00:00 14.5 5 Oeste 21 Noroeste 0 -- -- 70
2018-05-26 17:00:00 15.5 9 Oeste 17 Oeste 0 -- -- 71
2018-05-26 16:00:00 15.2 7 Oeste 15 Oeste 0 -- -- 70
2018-05-26 15:00:00 14.4 8 Noroeste 18 Oeste 0 -- -- 74
2018-05-26 14:00:00 14.1 9 Oeste 21 Oeste 0 -- -- 77
2018-05-26 13:00:00 14 12 Oeste 22 Oeste 0 -- -- 75
2018-05-26 12:00:00 15.4 13 Oeste 31 Este 0 -- -- 70
2018-05-26 11:00:00 15.2 17 Este 30 Sudeste 0 -- -- 66
2018-05-26 10:00:00 12.9 4 Nordeste 8 Nordeste 0 -- -- 83
2018-05-26 09:00:00 12.3 5 Este 9 Este 0 -- -- 83
2018-05-26 08:00:00 9.8 4 Este 9 Este 0 -- -- 92
2018-05-26 07:00:00 9 3 Sudeste 8 Este 0 -- -- 91
2018-05-26 06:00:00 9.8 3 Este 8 Este 0 -- -- 92
2018-05-26 05:00:00 10.5 0 Calma 7 Este 0 -- -- 92
2018-05-26 04:00:00 10.6 5 Sudeste 10 Sudeste 0 -- -- 91
2018-05-26 03:00:00 10.3 2 Sudeste 6 Este 0 -- -- 91
2018-05-26 02:00:00 10.4 0 Calma 9 Este 0 -- -- 92
2018-05-26 01:00:00 10.7 2 Este 5 Nordeste 0 -- -- 89
2018-05-26 00:00:00 11.2 0 Calma 9 Este 0 -- -- 89
2018-05-25 23:00:00 11.3 3 Nordeste 6 Nordeste 0 -- -- 89
2018-05-25 22:00:00 12.8 0 Calma 11 Oeste 0 -- -- 90
2018-05-25 21:00:00 13.5 8 Oeste 15 Oeste 0 -- -- 88
2018-05-25 20:00:00 14.1 8 Oeste 16 Oeste 0 -- -- 86
2018-05-25 19:00:00 14.2 10 Oeste 22 Oeste 0 -- -- 85
2018-05-25 18:00:00 14.4 13 Oeste 22 Oeste 0 -- -- 84
2018-05-25 17:00:00 14.4 12 Oeste 22 Oeste 0 -- -- 83
2018-05-25 16:00:00 15 11 Noroeste 19 Oeste 0 -- -- 83
2018-05-25 15:00:00 15.3 8 Oeste 16 Oeste 0 -- -- 77
2018-05-25 14:00:00 14.7 6 Oeste 15 Oeste 0 -- -- 76
2018-05-25 13:00:00 14.4 8 Oeste 19 Oeste 0 -- -- 78
2018-05-25 12:00:00 14.6 10 Oeste 16 Oeste 0 -- -- 78
2018-05-25 11:00:00 15 10 Oeste 17 Oeste 0 -- -- 76
2018-05-25 10:00:00 13.7 7 Oeste 11 Oeste 0 -- -- 76
2018-05-25 09:00:00 11.6 5 Este 10 Este 0 -- -- 85
2018-05-25 08:00:00 9.2 5 Este 9 Nordeste 0 -- -- 89
2018-05-25 07:00:00 9.1 3 Este 9 Este 0 -- -- 90
2018-05-25 06:00:00 10.3 3 Este 9 Este 0 -- -- 88
2018-05-25 05:00:00 10.5 5 Este 9 Este 0 -- -- 88
2018-05-25 04:00:00 10.7 6 Este 9 Este 0 -- -- 91
2018-05-25 03:00:00 9.9 3 Este 7 Este 0 -- -- 93
2018-05-25 02:00:00 10.1 2 Este 8 Este 0 -- -- 89
2018-05-25 01:00:00 11.7 4 Este 8 Este 0 -- -- 90
2018-05-25 00:00:00 12.6 0 Calma 5 Norte 0 -- -- 91
2018-05-24 23:00:00 12.9 4 Noroeste 11 Noroeste 0 -- -- 91
2018-05-24 22:00:00 13.3 5 Noroeste 10 Oeste 0 -- -- 90
2018-05-24 21:00:00 13.7 3 Oeste 6 Oeste 0 -- -- 87
2018-05-24 20:00:00 13.8 2 Sudoeste 5 Sudoeste 0 -- -- 88
2018-05-24 19:00:00 13.6 3 Norte 6 Norte 0.4 -- -- 91
2018-05-24 18:00:00 13.5 5 Noroeste 15 Noroeste 0 -- -- 88
2018-05-24 17:00:00 13.8 10 Oeste 15 Oeste 0 -- -- 83
2018-05-24 16:00:00 14 7 Noroeste 21 Oeste 0 -- -- 80
2018-05-24 15:00:00 14.3 9 Oeste 19 Oeste 0 -- -- 78
2018-05-24 14:00:00 14.6 8 Oeste 13 Oeste 0 -- -- 76
2018-05-24 13:00:00 14 9 Oeste 17 Oeste 0 -- -- 77
2018-05-24 12:00:00 14.4 7 Oeste 13 Oeste 0 -- -- 78
2018-05-24 11:00:00 14.1 8 Oeste 14 Oeste 0 -- -- 75
2018-05-24 10:00:00 13.6 5 Nordeste 9 Nordeste 0 -- -- 70
2018-05-24 09:00:00 10.6 5 Nordeste 9 Este 0 -- -- 83
2018-05-24 08:00:00 7 6 Este 9 Este 0 -- -- 88
2018-05-24 07:00:00 7.5 4 Este 10 Este 0 -- -- 88
2018-05-24 06:00:00 7.2 4 Este 11 Este 0 -- -- 87
2018-05-24 05:00:00 7.3 5 Este 9 Este 0 -- -- 87
2018-05-24 04:00:00 7.4 3 Este 9 Este 0 -- -- 85
2018-05-24 03:00:00 7.8 5 Este 10 Este 0 -- -- 84
2018-05-24 02:00:00 9 2 Este 7 Norte 0 -- -- 81
2018-05-24 01:00:00 10.2 5 Nordeste 14 Este 0 -- -- 78
2018-05-24 00:00:00 9.9 4 Este 14 Sudeste 0 -- -- 81
2018-05-23 23:00:00 9.9 6 Este 10 Este 0 -- -- 80
2018-05-23 22:00:00 11.8 5 Este 26 Este 0 -- -- 76
2018-05-23 21:00:00 12.5 15 Este 29 Sudeste 0 -- -- 76
2018-05-23 20:00:00 15.3 10 Sudoeste 28 Oeste 0 -- -- 62
2018-05-23 19:00:00 16.7 12 Oeste 26 Oeste 0 -- -- 54
2018-05-23 18:00:00 16.7 9 Sudoeste 27 Oeste 0 -- -- 55
2018-05-23 17:00:00 17.1 16 Oeste 29 Oeste 0 -- -- 52
2018-05-23 16:00:00 15.9 12 Oeste 26 Oeste 0 -- -- 58
2018-05-23 15:00:00 15.1 10 Oeste 23 Oeste 0 -- -- 63
2018-05-23 14:00:00 14.7 12 Oeste 26 Oeste 0 -- -- 68
2018-05-23 13:00:00 14.3 11 Oeste 21 Oeste 0 -- -- 71
2018-05-23 12:00:00 14.3 8 Sudoeste 18 Oeste 0 -- -- 73
2018-05-23 11:00:00 13 3 Sudoeste 10 Oeste 0 -- -- 77
2018-05-23 10:00:00 10.3 3 Este 8 Nordeste 0 -- -- 85
2018-05-23 09:00:00 10.8 4 Nordeste 7 Este 0 -- -- 81
2018-05-23 08:00:00 8.2 3 Este 7 Este 0 -- -- 86
2018-05-23 07:00:00 8.8 3 Sur 6 Nordeste 0 -- -- 86
2018-05-23 06:00:00 9.1 5 Nordeste 10 Nordeste 0 -- -- 85
2018-05-23 05:00:00 9.2 5 Este 9 Este 0 -- -- 86
2018-05-23 04:00:00 9 3 Este 7 Este 0 -- -- 83
2018-05-23 03:00:00 10.5 3 Sudeste 8 Sudeste 0 -- -- 83
2018-05-23 02:00:00 10.6 0 Calma 7 Este 0 -- -- 81
2018-05-23 01:00:00 10.5 4 Este 8 Este 0 -- -- 79
2018-05-23 00:00:00 11 4 Este 9 Este 0 -- -- 77
2018-05-22 23:00:00 11.9 5 Nordeste 10 Sur 0 -- -- 78
2018-05-22 22:00:00 13.4 3 Este 24 Sudoeste 0 -- -- 75
2018-05-22 21:00:00 15.5 8 Oeste 31 Oeste 0 -- -- 66
2018-05-22 20:00:00 18 19 Oeste 42 Oeste 0 -- -- 56
2018-05-22 19:00:00 19.2 23 Oeste 42 Oeste 0 -- -- 51
2018-05-22 18:00:00 20.1 24 Oeste 39 Oeste 0 -- -- 49
2018-05-22 17:00:00 20.8 26 Oeste 43 Noroeste 0 -- -- 49
2018-05-22 16:00:00 20.8 21 Oeste 34 Oeste 0 -- -- 56
2018-05-22 15:00:00 19.8 13 Sudoeste 35 Oeste 0 -- -- 64
2018-05-22 14:00:00 18.7 12 Oeste 28 Oeste 0 -- -- 73
2018-05-22 13:00:00 19.1 14 Oeste 25 Oeste 0 -- -- 71
2018-05-22 12:00:00 18.7 13 Oeste 22 Oeste 0 -- -- 70
2018-05-22 11:00:00 18.4 9 Oeste 16 Oeste 0 -- -- 66
2018-05-22 10:00:00 17.2 3 Oeste 10 Este 0 -- -- 59
2018-05-22 09:00:00 12.1 5 Este 10 Este 0 -- -- 79
2018-05-22 08:00:00 8.1 4 Sudeste 9 Este 0 -- -- 89
2018-05-22 07:00:00 7.1 4 Este 8 Este 0 -- -- 93
2018-05-22 06:00:00 6.9 5 Este 12 Este 0 -- -- 93
2018-05-22 05:00:00 7.1 5 Este 9 Este 0 -- -- 91
2018-05-22 04:00:00 7.3 4 Este 8 Este 0 -- -- 90
2018-05-22 03:00:00 7.8 3 Este 10 Este 0 -- -- 90
2018-05-22 02:00:00 8.3 4 Sudeste 9 Este 0 -- -- 88
2018-05-22 01:00:00 8.9 6 Este 10 Este 0 -- -- 89
2018-05-22 00:00:00 9.4 3 Este 9 Este 0 -- -- 88
2018-05-21 23:00:00 10.9 5 Este 9 Este 0 -- -- 86
2018-05-21 22:00:00 12.8 3 Nordeste 10 Oeste 0 -- -- 86
2018-05-21 21:00:00 13.9 5 Oeste 14 Oeste 0 -- -- 83
2018-05-21 20:00:00 14.6 4 Sudoeste 14 Oeste 0 -- -- 80
2018-05-21 19:00:00 15 5 Sudoeste 18 Oeste 0 -- -- 81
2018-05-21 18:00:00 14.8 9 Oeste 15 Oeste 0 -- -- 78
2018-05-21 17:00:00 15 6 Oeste 17 Noroeste 0 -- -- 78
2018-05-21 16:00:00 15.6 9 Noroeste 17 Oeste 0 -- -- 72
2018-05-21 15:00:00 15.5 8 Noroeste 18 Oeste 0 -- -- 71
2018-05-21 14:00:00 15.4 9 Noroeste 23 Oeste 0 -- -- 71
2018-05-21 13:00:00 16.2 13 Oeste 25 Oeste 0 -- -- 68
2018-05-21 12:00:00 16.5 12 Oeste 20 Oeste 0 -- -- 66
2018-05-21 11:00:00 15.2 5 Oeste 11 Oeste 0 -- -- 66
2018-05-21 10:00:00 13.7 4 Nordeste 10 Nordeste 0 -- -- 70
2018-05-21 09:00:00 12.7 6 Nordeste 11 Nordeste 0 -- -- 75
2018-05-21 08:00:00 9.6 3 Nordeste 8 Nordeste 0 -- -- 90
2018-05-21 07:00:00 8 4 Sudeste 9 Este 0 -- -- 92
2018-05-21 06:00:00 7.4 6 Este 9 Este 0 -- -- 89
2018-05-21 05:00:00 8 5 Este 12 Este 0 -- -- 88
2018-05-21 04:00:00 10.1 4 Sudeste 7 Sudeste 0 -- -- 86
2018-05-21 03:00:00 10.6 2 Este 4 Este 0 -- -- 89
2018-05-21 02:00:00 10.5 0 Calma 4 Noroeste 0 -- -- 90
2018-05-21 01:00:00 9.7 0 Calma 5 Nordeste 0 -- -- 88
2018-05-21 00:00:00 10.5 3 Sudeste 6 Este 0 -- -- 83
2018-05-20 23:00:00 12.1 2 Nordeste 6 Noroeste 0 -- -- 83
2018-05-20 22:00:00 12.7 5 Oeste 11 Oeste 0 -- -- 88
2018-05-20 21:00:00 12.8 7 Oeste 12 Oeste 0 -- -- 87
2018-05-20 20:00:00 13 6 Oeste 13 Oeste 0 -- -- 86
2018-05-20 19:00:00 13 8 Oeste 14 Sudeste 0 -- -- 86
2018-05-20 18:00:00 13.4 4 Este 13 Oeste 0 -- -- 83
2018-05-20 17:00:00 14.2 5 Sudoeste 16 Oeste 0 -- -- 78
2018-05-20 16:00:00 14.6 10 Este 20 Oeste 0 -- -- 75
2018-05-20 15:00:00 15.9 15 Oeste 25 Oeste 0 -- -- 67
2018-05-20 14:00:00 16.8 15 Oeste 34 Oeste 0 -- -- 63
2018-05-20 13:00:00 16.9 12 Oeste 27 Oeste 0 -- -- 59
2018-05-20 12:00:00 16.4 15 Oeste 23 Oeste 0 -- -- 58
2018-05-20 11:00:00 14.5 12 Sudeste 24 Este 0 -- -- 66
2018-05-20 10:00:00 13.5 13 Este 23 Este 0 -- -- 67
2018-05-20 09:00:00 10.8 12 Este 28 Este 0 -- -- 73
2018-05-20 08:00:00 10.2 11 Este 22 Este 0 -- -- 74
2018-05-20 07:00:00 10.5 10 Este 22 Este 0 -- -- 74
2018-05-20 06:00:00 10.6 11 Este 30 Este 0 -- -- 75
2018-05-20 05:00:00 10.7 15 Este 28 Este 0 -- -- 74
2018-05-20 04:00:00 10.8 15 Este 30 Sudeste 0 -- -- 78
2018-05-20 03:00:00 10.9 15 Este 28 Este 0 -- -- 76
2018-05-20 02:00:00 11 11 Este 20 Sudeste 0 -- -- 76
2018-05-20 01:00:00 10.8 13 Sudeste 24 Sudeste 0 -- -- 78
2018-05-20 00:00:00 11 10 Sudeste 18 Sudeste 0 -- -- 77
2018-05-19 23:00:00 10.8 12 Sudeste 24 Sudeste 0 -- -- 77
2018-05-19 22:00:00 11.5 11 Sudeste 23 Sudeste 0 -- -- 80
2018-05-19 21:00:00 12.1 9 Sudeste 21 Sudeste 0 -- -- 80
2018-05-19 20:00:00 12.2 11 Sudeste 25 Este 0 -- -- 85
2018-05-19 19:00:00 12.6 13 Este 27 Sudeste 0 -- -- 86
2018-05-19 18:00:00 13 13 Sudeste 22 Este 0 -- -- 83
2018-05-19 17:00:00 13.7 10 Este 18 Este 0 -- -- 80
2018-05-19 16:00:00 14.5 6 Oeste 24 Oeste 0 -- -- 76
2018-05-19 15:00:00 14.3 13 Este 27 Este 0 -- -- 74
2018-05-19 14:00:00 13.5 17 Este 27 Este 0 -- -- 82
2018-05-19 13:00:00 14.2 15 Este 30 Este 0 -- -- 80
2018-05-19 12:00:00 14.8 16 Este 29 Este 0 -- -- 75
2018-05-19 11:00:00 15 15 Este 26 Este 0 -- -- 70
2018-05-19 10:00:00 13.9 13 Este 24 Sudeste 0 -- -- 77
2018-05-19 09:00:00 10.6 3 Este 7 Este 0 -- -- 85
2018-05-19 08:00:00 7.7 4 Este 10 Este 0 -- -- 91
2018-05-19 07:00:00 8.1 5 Este 13 Sudeste 0 -- -- 89
2018-05-19 06:00:00 8.3 3 Este 9 Este 0 -- -- 90
2018-05-19 05:00:00 9 5 Este 26 Sudeste 0 -- -- 89
2018-05-19 04:00:00 9.5 8 Este 17 Este 0 -- -- 92
2018-05-19 03:00:00 8.5 3 Este 10 Este 0 -- -- 90
2018-05-19 02:00:00 9.4 4 Este 11 Este 0 -- -- 87
2018-05-19 01:00:00 10.1 4 Este 9 Sur 0 -- -- 85
2018-05-19 00:00:00 11 4 Sudeste 13 Sudeste 0 -- -- 82
2018-05-18 23:00:00 11.7 8 Este 17 Este 0 -- -- 81
2018-05-18 22:00:00 12 8 Este 21 Este 0 -- -- 85
2018-05-18 21:00:00 12.3 12 Sudeste 24 Este 0 -- -- 85
2018-05-18 20:00:00 12.9 12 Este 29 Este 0 -- -- 84
2018-05-18 19:00:00 13.2 14 Este 25 Este 0 -- -- 83
2018-05-18 18:00:00 14.2 11 Este 21 Este 0 -- -- 79
2018-05-18 17:00:00 15.1 3 Norte 25 Este 0 -- -- 75
2018-05-18 16:00:00 15.3 14 Este 28 Este 0 -- -- 70
2018-05-18 15:00:00 15 15 Este 31 Este 0 -- -- 71
2018-05-18 14:00:00 14.6 13 Este 25 Sudeste 0 -- -- 73
2018-05-18 13:00:00 15.2 8 Este 20 Sudeste 0 -- -- 74
2018-05-18 12:00:00 14.3 10 Sudeste 27 Este 0 -- -- 76
2018-05-18 11:00:00 13.4 11 Este 19 Este 0 -- -- 82
2018-05-18 10:00:00 12.8 2 Oeste 5 Oeste 0 -- -- 78
2018-05-18 09:00:00 11.2 4 Este 8 Nordeste 0 -- -- 81
2018-05-18 08:00:00 9.3 2 Este 10 Sur 0 -- -- 86
2018-05-18 07:00:00 10.7 5 Sudeste 17 Este 0 -- -- 81
2018-05-18 06:00:00 11 9 Sudeste 17 Este 0 -- -- 82
2018-05-18 05:00:00 11 7 Sudeste 21 Este 0 -- -- 83
2018-05-18 04:00:00 11.3 10 Sudeste 18 Este 0 -- -- 86
2018-05-18 03:00:00 11.8 9 Sudeste 16 Este 0 -- -- 83
2018-05-18 02:00:00 11.8 8 Sudeste 14 Este 0 -- -- 82
2018-05-18 01:00:00 11.8 4 Sudeste 6 Sudeste 0 -- -- 82
2018-05-18 00:00:00 12.2 3 Este 6 Sudeste 0 -- -- 83
2018-05-17 23:00:00 13.1 3 Noroeste 8 Sudoeste 0 -- -- 88
2018-05-17 22:00:00 13.5 4 Oeste 9 Oeste 0 -- -- 86
2018-05-17 21:00:00 13.7 7 Oeste 10 Oeste 0 -- -- 84
2018-05-17 20:00:00 14.1 5 Oeste 14 Oeste 0 -- -- 82
2018-05-17 19:00:00 14.7 5 Noroeste 21 Oeste 0 -- -- 79
2018-05-17 18:00:00 15.8 10 Oeste 18 Oeste 0 -- -- 75
2018-05-17 17:00:00 16.3 10 Noroeste 19 Noroeste 0 -- -- 73
2018-05-17 16:00:00 15.7 6 Noroeste 19 Oeste 0 -- -- 71
2018-05-17 15:00:00 14.6 5 Sudeste 22 Sudeste 0 -- -- 76
2018-05-17 14:00:00 13.9 17 Este 28 Este 0 -- -- 81
2018-05-17 13:00:00 15.7 8 Oeste 18 Oeste 0 -- -- 72
2018-05-17 12:00:00 15.9 10 Oeste 18 Oeste 0 -- -- 71
2018-05-17 11:00:00 16.3 7 Sudoeste 15 Sudeste 0 -- -- 66
2018-05-17 10:00:00 14 8 Este 14 Este 0 -- -- 73
2018-05-17 09:00:00 10.4 5 Nordeste 9 Nordeste 0 -- -- 86
2018-05-17 08:00:00 7.7 4 Este 11 Nordeste 0 -- -- 90
2018-05-17 07:00:00 7.6 5 Este 13 Nordeste 0 -- -- 89
2018-05-17 06:00:00 7.4 5 Este 9 Este 0 -- -- 89
2018-05-17 05:00:00 8.5 5 Este 10 Nordeste 0 -- -- 86
2018-05-17 04:00:00 9.9 4 Este 16 Sudeste 0 -- -- 83
2018-05-17 03:00:00 10.3 8 Este 21 Sudeste 0 -- -- 83
2018-05-17 02:00:00 9.9 4 Este 12 Este 0 -- -- 84
2018-05-17 01:00:00 9.4 5 Este 11 Este 0 -- -- 85
2018-05-17 00:00:00 10.5 6 Nordeste 16 Sur 0 -- -- 78
2018-05-16 23:00:00 11.3 6 Este 17 Sudeste 0 -- -- 78
2018-05-16 22:00:00 12.2 6 Sudeste 21 Sudeste 0 -- -- 74
2018-05-16 21:00:00 12.7 13 Sudeste 24 Sudeste 0 -- -- 74
2018-05-16 20:00:00 14.4 5 Sur 16 Oeste 0 -- -- 75
2018-05-16 19:00:00 15.6 11 Oeste 23 Oeste 0 -- -- 74
2018-05-16 18:00:00 16.3 10 Oeste 21 Oeste 0 -- -- 71
2018-05-16 17:00:00 15.9 10 Oeste 19 Oeste 0 -- -- 74
2018-05-16 16:00:00 15.9 10 Oeste 26 Sudeste 0 -- -- 74
2018-05-16 15:00:00 15.3 17 Sudeste 24 Sudeste 0 -- -- 76
2018-05-16 14:00:00 14.8 15 Sudeste 28 Sudeste 0 -- -- 80
2018-05-16 13:00:00 17.2 11 Oeste 25 Sudeste 0 -- -- 66
2018-05-16 12:00:00 16.3 12 Sudeste 32 Sudeste 0 -- -- 65
2018-05-16 11:00:00 15.5 12 Sudeste 26 Este 0 -- -- 71
2018-05-16 10:00:00 14.4 4 Nordeste 10 Nordeste 0 -- -- 73
2018-05-16 09:00:00 11.7 3 Norte 8 Nordeste 0 -- -- 84
2018-05-16 08:00:00 8.5 5 Este 10 Nordeste 0 -- -- 88
2018-05-16 07:00:00 9.3 3 Nordeste 24 Este 0 -- -- 84
2018-05-16 06:00:00 11.2 9 Este 36 Sudeste 0 -- -- 78
2018-05-16 05:00:00 10.9 7 Este 32 Este 0 -- -- 78
2018-05-16 04:00:00 9.2 6 Nordeste 26 Este 0 -- -- 87
2018-05-16 03:00:00 9.8 3 Noroeste 13 Este 0 -- -- 86
2018-05-16 02:00:00 10.2 2 Noroeste 17 Este 0 -- -- 86
2018-05-16 01:00:00 11.3 2 Sudeste 25 Este 0 -- -- 84
2018-05-16 00:00:00 12.1 19 Sudeste 36 Sudeste 0 -- -- 81
2018-05-15 23:00:00 12.1 4 Este 39 Este 0 -- -- 83
2018-05-15 22:00:00 13.1 10 Este 39 Sudeste 0 -- -- 73
2018-05-15 21:00:00 13.5 20 Este 38 Sudeste 0 -- -- 77
2018-05-15 20:00:00 15.8 14 Sudeste 27 Oeste 0 -- -- 65
2018-05-15 19:00:00 17.6 11 Noroeste 48 Este 0 -- -- 66
2018-05-15 18:00:00 16 28 Este 47 Este 0 -- -- 73
2018-05-15 17:00:00 16.4 28 Este 47 Este 0 -- -- 73
2018-05-15 16:00:00 17 25 Este 44 Este 0 -- -- 73
2018-05-15 15:00:00 17 24 Sudeste 44 Este 0 -- -- 71
2018-05-15 14:00:00 16.5 26 Este 49 Este 0 -- -- 73
2018-05-15 13:00:00 16.4 25 Este 46 Este 0 -- -- 71
2018-05-15 12:00:00 15.7 27 Este 51 Este 0 -- -- 74
2018-05-15 11:00:00 15.5 23 Este 49 Este 0 -- -- 72
2018-05-15 10:00:00 14.5 21 Este 39 Este 0 -- -- 74
2018-05-15 09:00:00 13.6 15 Sudeste 36 Este 0 -- -- 69
2018-05-15 08:00:00 11.8 12 Este 39 Este 0 -- -- 65
2018-05-15 07:00:00 11.4 20 Sudeste 31 Sudeste 0 -- -- 75
2018-05-15 06:00:00 10.6 7 Oeste 27 Este 0 -- -- 67
2018-05-15 05:00:00 9.3 2 Sudeste 19 Sudeste 0 -- -- 79
2018-05-15 04:00:00 10 4 Nordeste 11 Norte 0 -- -- 91
2018-05-15 03:00:00 11.3 3 Noroeste 20 Sudeste 0 -- -- 72
2018-05-15 02:00:00 12.7 6 Noroeste 37 Este 0 -- -- 51
2018-05-15 01:00:00 12.8 12 Este 35 Este 0 -- -- 44
2018-05-15 00:00:00 12.8 13 Este 37 Sudeste 0 -- -- 40
2018-05-14 23:00:00 12.4 19 Este 34 Sudeste 0 -- -- 60
2018-05-14 22:00:00 11.9 13 Este 35 Este 0 -- -- 71
2018-05-14 21:00:00 12.8 8 Este 33 Este 0 -- -- 72
2018-05-14 20:00:00 15.9 8 Sudoeste 23 Sudeste 0 -- -- 66
2018-05-14 19:00:00 17.5 12 Oeste 20 Oeste 0 -- -- 71
2018-05-14 18:00:00 18.4 13 Oeste 27 Sudoeste 0 -- -- 65
2018-05-14 17:00:00 20 15 Oeste 31 Sur 0 -- -- 61
2018-05-14 16:00:00 20.2 8 Sudoeste 26 Este 0 -- -- 60
2018-05-14 15:00:00 18.8 12 Oeste 35 Este 0 -- -- 66
2018-05-14 14:00:00 17.2 24 Sudeste 41 Sudeste 0 -- -- 63
2018-05-14 13:00:00 17.8 23 Este 40 Este 0 -- -- 60
2018-05-14 12:00:00 16.5 21 Este 46 Este 0 -- -- 63
2018-05-14 11:00:00 14.9 24 Este 44 Este 0 -- -- 68
2018-05-14 10:00:00 13.3 22 Este 46 Este 0 -- -- 71
2018-05-14 09:00:00 11.7 25 Este 55 Este 0 -- -- 80
2018-05-14 08:00:00 10 22 Este 42 Este 0 -- -- 84
2018-05-14 07:00:00 10 23 Este 49 Sudeste 0 -- -- 83
2018-05-14 06:00:00 9.9 21 Este 43 Este 0 -- -- 84
2018-05-14 05:00:00 10 20 Este 42 Nordeste 0 -- -- 80
2018-05-14 04:00:00 10.4 23 Este 43 Este 0 -- -- 83
2018-05-14 03:00:00 10.2 24 Este 46 Este 0 -- -- 85
2018-05-14 02:00:00 10.4 17 Este 51 Este 0 -- -- 83
2018-05-14 01:00:00 10.5 28 Este 49 Este 0 -- -- 85
2018-05-14 00:00:00 10.6 21 Este 39 Sudeste 0 -- -- 82
2018-05-11 19:00:00 -- -- -- -- -- -- -- -- --
2018-05-11 18:00:00 -- -- -- -- -- -- -- -- --
2018-05-11 17:00:00 17.2 22 Sudeste 37 Sudeste 0 -- -- 63
2018-05-11 16:00:00 18.4 15 Oeste 39 Sudeste 0 -- -- 68
2018-05-11 15:00:00 16.8 24 Sudeste 41 Sudeste 0 -- -- 70
2018-05-11 14:00:00 17 21 Este 40 Este 0 -- -- 73
2018-05-11 13:00:00 17.6 8 Oeste 28 Sudeste 0 -- -- 70
2018-05-11 12:00:00 17 12 Este 35 Este 0 -- -- 67
2018-05-11 11:00:00 15.8 17 Este 35 Este 0 -- -- 70
2018-05-11 10:00:00 13.5 24 Este 45 Este 0 -- -- 73
2018-05-11 09:00:00 11.9 22 Sudeste 42 Sudeste 0 -- -- 77
2018-05-11 08:00:00 8.6 0 Calma 9 Este 0 -- -- 94
2018-05-11 07:00:00 8.5 3 Este 9 Nordeste 0 -- -- 94
2018-05-11 06:00:00 8.2 2 Sudeste 7 Este 0 -- -- 92
2018-05-11 05:00:00 8 4 Este 9 Este 0 -- -- 90
2018-05-11 04:00:00 9.3 6 Este 9 Este 0 -- -- 86
2018-05-11 03:00:00 10.9 2 Norte 23 Este 0 -- -- 84
2018-05-11 02:00:00 11.2 10 Sudeste 25 Este 0 -- -- 86
2018-05-11 01:00:00 11.6 13 Este 27 Este 0 -- -- 89
2018-05-11 00:00:00 12 12 Sudeste 25 Sudeste 0 -- -- 90
2018-05-10 23:00:00 12.5 13 Este 32 Este 0 -- -- 88
2018-05-10 22:00:00 12.9 16 Este 27 Este 0 -- -- 87
2018-05-10 21:00:00 13.2 11 Sudeste 20 Este 0 -- -- 84
2018-05-10 20:00:00 13.9 4 Oeste 15 Oeste 0 -- -- 85
2018-05-10 19:00:00 13.9 4 Sur 26 Este 0 -- -- 83
2018-05-10 18:00:00 13.8 14 Este 27 Este 0 -- -- 84
2018-05-10 17:00:00 15.5 15 Este 26 Este 0 -- -- 83
2018-05-10 16:00:00 17.2 17 Este 28 Este 0 -- -- 70
2018-05-10 15:00:00 17.1 4 Noroeste 18 Oeste 0 -- -- 70
2018-05-10 14:00:00 17.8 4 Sudoeste 29 Este 0 -- -- 69
2018-05-10 13:00:00 17.6 17 Este 33 Este 0 -- -- 63
2018-05-10 12:00:00 16.9 20 Este 39 Este 0 -- -- 63
2018-05-10 11:00:00 14.9 24 Este 45 Este 0 -- -- 68
2018-05-10 10:00:00 13.2 25 Este 45 Este 0 -- -- 78
2018-05-10 09:00:00 12.1 17 Este 32 Sudeste 0 -- -- 85
2018-05-10 08:00:00 9.4 5 Este 24 Este 0 -- -- 90
2018-05-10 07:00:00 9.2 7 Este 18 Este 0 -- -- 95
2018-05-10 06:00:00 8.6 3 Este 8 Este 0 -- -- 90
2018-05-10 05:00:00 10.1 7 Este 24 Este 0 -- -- 87
2018-05-10 04:00:00 10.8 8 Este 23 Este 0 -- -- 86
2018-05-10 03:00:00 11.2 11 Este 30 Este 0 -- -- 87
2018-05-10 02:00:00 11.4 14 Este 36 Este 0 -- -- 88
2018-05-10 01:00:00 11.5 19 Este 46 Este 0 -- -- 87
2018-05-10 00:00:00 12 27 Este 45 Este 0 -- -- 92
2018-05-09 23:00:00 11.7 25 Este 44 Este 0 -- -- 88
2018-05-09 22:00:00 12 20 Este 36 Este 0 -- -- 88
2018-05-09 21:00:00 12.3 19 Este 35 Este 0 -- -- 87
2018-05-09 20:00:00 13.3 20 Este 38 Este 0 -- -- 86
2018-05-09 19:00:00 14.2 18 Este 37 Sudeste 0 -- -- 81
2018-05-09 18:00:00 15.3 23 Este 42 Este 0 -- -- 75
2018-05-09 17:00:00 16 26 Este 45 Este 0 -- -- 72
2018-05-09 16:00:00 15.9 20 Este 35 Sudeste 0 -- -- 72
2018-05-09 15:00:00 17.6 12 Sudeste 28 Sur 0 -- -- 69
2018-05-09 14:00:00 17.2 12 Este 35 Este 0 -- -- 69
2018-05-09 13:00:00 16.2 22 Este 38 Este 0 -- -- 72
2018-05-09 12:00:00 15 21 Este 38 Este 0 -- -- 76
2018-05-09 11:00:00 13.8 21 Este 39 Este 0 -- -- 83
2018-05-09 10:00:00 14.5 12 Este 24 Este 0 -- -- 74
2018-05-09 09:00:00 11.4 11 Nordeste 19 Nordeste 0 -- -- 83
2018-05-09 08:00:00 8.3 2 Este 7 Nordeste 0 -- -- 91
2018-05-09 07:00:00 8.3 4 Este 9 Este 0 -- -- 91
2018-05-09 06:00:00 9.3 4 Este 9 Este 0 -- -- 86
2018-05-09 05:00:00 11.2 6 Este 27 Este 0 -- -- 83
2018-05-09 04:00:00 10.3 6 Nordeste 30 Este 0 -- -- 86
2018-05-09 03:00:00 10.7 6 Este 20 Este 0 -- -- 85
2018-05-09 02:00:00 10.8 6 Nordeste 17 Sudeste 0 -- -- 83
2018-05-09 01:00:00 11.3 6 Este 12 Sudeste 0 -- -- 83
2018-05-09 00:00:00 12.7 2 Oeste 13 Sudeste 0 -- -- 88
2018-05-08 23:00:00 12.7 7 Sudeste 15 Sudeste 0 -- -- 79
2018-05-08 22:00:00 13 4 Este 12 Oeste 0 -- -- 87
2018-05-08 21:00:00 13.5 9 Oeste 15 Oeste 0 -- -- 86
2018-05-08 20:00:00 14.2 6 Oeste 12 Oeste 0 -- -- 84
2018-05-08 19:00:00 14.8 4 Oeste 15 Oeste 0 -- -- 82
2018-05-08 18:00:00 15.3 11 Oeste 17 Oeste 0 -- -- 77
2018-05-08 17:00:00 15.5 7 Noroeste 19 Oeste 0 -- -- 74
2018-05-08 16:00:00 16 7 Sudoeste 14 Oeste 0 -- -- 71
2018-05-08 15:00:00 15.3 3 Oeste 16 Oeste 0 -- -- 75
2018-05-08 14:00:00 14.8 9 Oeste 14 Oeste 0 -- -- 76
2018-05-08 13:00:00 14.6 6 Oeste 15 Oeste 0 -- -- 76
2018-05-08 12:00:00 14.3 6 Noroeste 12 Oeste 0 -- -- 75
2018-05-08 11:00:00 14.1 8 Este 16 Este 0 -- -- 73
2018-05-08 10:00:00 14.4 5 Nordeste 24 Este 0 -- -- 71
2018-05-08 09:00:00 10 7 Nordeste 17 Este 0 -- -- 88
2018-05-08 08:00:00 8.3 5 Nordeste 12 Nordeste 0 -- -- 90
2018-05-08 07:00:00 7.9 4 Este 12 Nordeste 0 -- -- 91
2018-05-08 06:00:00 8.1 3 Este 18 Este 0 -- -- 89
2018-05-08 05:00:00 8.5 5 Este 11 Nordeste 0 -- -- 88
2018-05-08 04:00:00 9.1 7 Nordeste 15 Nordeste 0 -- -- 88
2018-05-08 03:00:00 10.7 4 Este 18 Este 0 -- -- 80
2018-05-08 02:00:00 11.5 8 Este 19 Este 0 -- -- 80
2018-05-08 01:00:00 11.7 12 Este 20 Este 0 -- -- 79
2018-05-08 00:00:00 11.6 13 Este 27 Este 0 -- -- 80
2018-05-07 23:00:00 12 9 Sudeste 19 Sudeste 0 -- -- 80
2018-05-07 22:00:00 12.4 9 Sudeste 19 Este 0 -- -- 82
2018-05-07 21:00:00 13.1 4 Este 12 Sudeste 0 -- -- 79
2018-05-07 20:00:00 13.6 6 Noroeste 12 Noroeste 0 -- -- 77
2018-05-07 19:00:00 14 6 Oeste 20 Oeste 0 -- -- 75
2018-05-07 18:00:00 14.1 6 Oeste 16 Noroeste 0 -- -- 74
2018-05-07 17:00:00 13.5 6 Este 12 Sudeste 0 -- -- 78
2018-05-07 16:00:00 13.5 5 Sudeste 13 Sudeste 0 -- -- 76
2018-05-07 15:00:00 13.7 4 Oeste 15 Oeste 0 -- -- 74
2018-05-07 14:00:00 13.8 6 Oeste 20 Oeste 0 -- -- 74
2018-05-07 13:00:00 14 8 Oeste 15 Oeste 0 -- -- 73
2018-05-07 12:00:00 14.4 8 Sudoeste 15 Oeste 0 -- -- 71
2018-05-07 11:00:00 15.3 4 Nordeste 13 Oeste 0 -- -- 66
2018-05-07 10:00:00 14.3 6 Sudoeste 14 Sur 0 -- -- 69
2018-05-07 09:00:00 8.9 3 Este 11 Nordeste 0 -- -- 86
2018-05-07 08:00:00 7.9 4 Este 9 Este 0 -- -- 87
2018-05-07 07:00:00 9.1 3 Este 13 Sudeste 0 -- -- 84
2018-05-07 06:00:00 9.9 0 Calma 10 Sudoeste 0 -- -- 83
2018-05-07 05:00:00 9.7 6 Sudeste 10 Sudeste 0 -- -- 85
2018-05-07 04:00:00 9.2 2 Este 6 Este 0 -- -- 88
2018-05-07 03:00:00 8.5 3 Sudeste 9 Sudeste 0 -- -- 87
2018-05-07 02:00:00 9.3 4 Sudeste 9 Este 0 -- -- 87
2018-05-07 01:00:00 9.3 2 Nordeste 7 Este 0 -- -- 85
2018-05-07 00:00:00 10.8 3 Este 8 Sudeste 0 -- -- 86
2018-05-06 23:00:00 11.5 6 Este 18 Este 0 -- -- 83
2018-05-06 22:00:00 11.5 7 Este 12 Este 0 -- -- 85
2018-05-06 21:00:00 12.5 0 Calma 17 Sudoeste 0 -- -- 84
2018-05-06 20:00:00 13.4 6 Sudoeste 21 Oeste 0 -- -- 80
2018-05-06 19:00:00 13.2 6 Oeste 27 Sur 0 -- -- 82
2018-05-06 18:00:00 13.1 9 Oeste 21 Oeste 0 -- -- 80
2018-05-06 17:00:00 13.4 9 Oeste 26 Sur 0 -- -- 80
2018-05-06 16:00:00 13.8 8 Sudoeste 24 Sur 0 -- -- 76
2018-05-06 15:00:00 14.3 10 Sudoeste 28 Oeste 0 -- -- 75
2018-05-06 14:00:00 14.1 9 Sudoeste 24 Oeste 0 -- -- 76
2018-05-06 13:00:00 14.5 10 Sudoeste 24 Sur 0 -- -- 72
2018-05-06 12:00:00 14.6 10 Oeste 28 Oeste 0 -- -- 69
2018-05-06 11:00:00 14.7 5 Oeste 14 Sur 0 -- -- 67
2018-05-06 10:00:00 14 3 Oeste 5 Oeste 0 -- -- 72
2018-05-06 09:00:00 10.2 3 Este 9 Nordeste 0 -- -- 87
2018-05-06 08:00:00 8.9 4 Este 10 Este 0 -- -- 90
2018-05-06 07:00:00 8.5 4 Este 9 Este 0 -- -- 90
2018-05-06 06:00:00 8.5 5 Este 12 Norte 0 -- -- 89
2018-05-06 05:00:00 8.7 5 Este 10 Este 0 -- -- 90
2018-05-06 04:00:00 9.3 3 Este 5 Este 0 -- -- 89
2018-05-06 03:00:00 9 3 Este 7 Este 0 -- -- 90
2018-05-06 02:00:00 9.3 3 Este 6 Este 0 -- -- 89
2018-05-06 01:00:00 8.9 4 Este 8 Este 0 -- -- 90
2018-05-06 00:00:00 9.2 2 Este 8 Este 0 -- -- 88
2018-05-05 23:00:00 10.2 3 Este 7 Este 0 -- -- 88
2018-05-05 22:00:00 10.9 3 Nordeste 6 Nordeste 0 -- -- 86
2018-05-05 21:00:00 11.9 3 Oeste 17 Oeste 0 -- -- 80
2018-05-05 20:00:00 12.7 8 Oeste 19 Oeste 0 -- -- 79
2018-05-05 19:00:00 13.2 9 Oeste 21 Oeste 0 -- -- 70
2018-05-05 18:00:00 13.8 6 Oeste 21 Oeste 0 -- -- 65
2018-05-05 17:00:00 13.7 9 Oeste 25 Oeste 0 -- -- 66
2018-05-05 16:00:00 13.7 11 Oeste 26 Oeste 0 -- -- 66
2018-05-05 15:00:00 13.5 17 Oeste 27 Oeste 0 -- -- 72
2018-05-05 14:00:00 13 14 Oeste 28 Noroeste 0 -- -- 81
2018-05-05 13:00:00 13.2 12 Oeste 24 Oeste 0 -- -- 80
2018-05-05 12:00:00 13.6 12 Oeste 28 Oeste 0 -- -- 82
2018-05-05 11:00:00 14.8 12 Oeste 20 Oeste 0 -- -- 76
2018-05-05 10:00:00 14.1 2 Sudoeste 10 Oeste 0 -- -- 68
2018-05-05 09:00:00 11.5 6 Este 9 Sudeste 0 -- -- 80
2018-05-05 08:00:00 10.8 3 Sudeste 12 Sudeste 0 -- -- 82
2018-05-05 07:00:00 11.2 6 Este 11 Sudeste 0 -- -- 83
2018-05-05 06:00:00 11.3 5 Este 20 Nordeste 0 -- -- 80
2018-05-05 05:00:00 11.3 8 Este 35 Sudeste 0 -- -- 77
2018-05-05 04:00:00 10.8 9 Este 26 Sudeste 0 -- -- 82
2018-05-05 03:00:00 10.6 11 Sudeste 26 Sudeste 0 -- -- 90
2018-05-05 02:00:00 11.3 7 Este 32 Nordeste 0 -- -- 81
2018-05-05 01:00:00 11.1 9 Este 21 Este 0 -- -- 78
2018-05-05 00:00:00 11.4 10 Sudeste 23 Este 0 -- -- 81
2018-05-04 23:00:00 11.1 3 Este 35 Este 0 -- -- 83
2018-05-04 22:00:00 11.4 13 Este 24 Este 0 -- -- 79
2018-05-04 21:00:00 11.7 17 Sudeste 31 Este 0 -- -- 83
2018-05-04 20:00:00 12.4 17 Sudeste 33 Este 0 -- -- 81
2018-05-04 19:00:00 13 14 Sudeste 35 Sudeste 0 -- -- 84
2018-05-04 18:00:00 13.4 10 Este 28 Este 0 -- -- 81
2018-05-04 17:00:00 14.2 17 Este 34 Nordeste 0 -- -- 76
2018-05-04 16:00:00 14.9 18 Este 36 Sudeste 0 -- -- 72
2018-05-04 15:00:00 14.4 17 Este 37 Este 0 -- -- 76
2018-05-04 14:00:00 14.7 22 Este 45 Sudeste 0 -- -- 74
2018-05-04 13:00:00 14.4 18 Este 41 Este 0 -- -- 78
2018-05-04 12:00:00 15.2 19 Este 39 Este 0 -- -- 73
2018-05-04 11:00:00 13.6 14 Este 35 Este 0 -- -- 76
2018-05-04 10:00:00 13.1 21 Este 40 Este 0 -- -- 69
2018-05-04 09:00:00 11.4 14 Este 32 Este 0 -- -- 73
2018-05-04 08:00:00 11 14 Este 40 Este 0 -- -- 74
2018-05-04 07:00:00 10.6 15 Este 31 Este 0 -- -- 78
2018-05-04 06:00:00 10.3 13 Este 26 Este 0 -- -- 79
2018-05-04 05:00:00 9.6 7 Este 17 Sudeste 0 -- -- 83
2018-05-04 04:00:00 10.3 7 Este 31 Este 0 -- -- 85
2018-05-04 03:00:00 10.9 16 Este 33 Este 0 -- -- 83
2018-05-04 02:00:00 10.9 9 Nordeste 30 Sudeste 0 -- -- 86
2018-05-04 01:00:00 11.9 7 Este 27 Este 0 -- -- 84
2018-05-04 00:00:00 11.8 17 Este 32 Este 0 -- -- 84
2018-05-03 23:00:00 11.9 18 Este 37 Este 0 -- -- 83
2018-05-03 22:00:00 12 13 Sudeste 26 Este 0 -- -- 81
2018-05-03 21:00:00 12.4 2 Sudeste 16 Sudeste 0 -- -- 82
2018-05-03 20:00:00 13.1 8 Este 18 Sudeste 0 -- -- 83
2018-05-03 19:00:00 12.9 12 Sudeste 24 Sudeste 0 -- -- 83
2018-05-03 18:00:00 13.7 5 Oeste 13 Oeste 0 -- -- 82
2018-05-03 17:00:00 13.9 6 Oeste 15 Oeste 0 -- -- 80
2018-05-03 16:00:00 13.8 5 Oeste 17 Oeste 0 -- -- 82
2018-05-03 15:00:00 13.8 9 Noroeste 16 Noroeste 0 -- -- 81
2018-05-03 14:00:00 14.5 9 Oeste 20 Oeste 0 -- -- 81
2018-05-03 13:00:00 15.2 11 Oeste 17 Oeste 0 -- -- 79
2018-05-03 12:00:00 15.2 4 Sur 10 Oeste 0 -- -- 74
2018-05-03 11:00:00 13.3 4 Noroeste 8 Oeste 0 -- -- 79
2018-05-03 10:00:00 12.4 3 Nordeste 7 Este 0 -- -- 83
2018-05-03 09:00:00 9.8 5 Este 10 Este 0 -- -- 92
2018-05-03 08:00:00 7.2 4 Este 10 Este 0 -- -- 95
2018-05-03 07:00:00 7.1 4 Este 9 Este 0 -- -- 94
2018-05-03 06:00:00 7.6 4 Sudeste 10 Este 0 -- -- 93
2018-05-03 05:00:00 7.8 6 Este 10 Este 0 -- -- 94
2018-05-03 04:00:00 7.9 4 Este 10 Este 0 -- -- 94
2018-05-03 03:00:00 7.8 4 Este 9 Este 0 -- -- 94
2018-05-03 02:00:00 8.1 5 Este 10 Nordeste 0 -- -- 93
2018-05-03 01:00:00 8.4 5 Este 11 Este 0.2 -- -- 93
2018-05-03 00:00:00 8.5 7 Este 10 Este 0 -- -- 93
2018-05-02 23:00:00 9.6 6 Este 9 Nordeste 0 -- -- 90
2018-05-02 22:00:00 11.4 3 Nordeste 8 Nordeste 0 -- -- 92
2018-05-02 21:00:00 12.2 2 Sudeste 14 Sur 0 -- -- 92
2018-05-02 20:00:00 12.5 5 Oeste 20 Oeste 0 -- -- 92
2018-05-02 19:00:00 12.9 6 Oeste 19 Sudoeste 0 -- -- 91
2018-05-02 18:00:00 13.4 6 Oeste 26 Noroeste 0 -- -- 93
2018-05-02 17:00:00 13.1 14 Oeste 22 Oeste 0.8 -- -- 92
2018-05-02 16:00:00 13.3 13 Oeste 23 Sudoeste 0.2 -- -- 92
2018-05-02 15:00:00 13.9 12 Oeste 20 Noroeste 0 -- -- 84
2018-05-02 14:00:00 13.8 9 Oeste 15 Oeste 0 -- -- 85
2018-05-02 13:00:00 12.9 10 Oeste 19 Oeste 0 -- -- 88
2018-05-02 12:00:00 13.3 10 Oeste 19 Oeste 0 -- -- 85
2018-05-02 11:00:00 14.3 11 Oeste 20 Oeste 0 -- -- 79
2018-05-02 10:00:00 12.3 0 Calma 8 Nordeste 0 -- -- 84
2018-05-02 09:00:00 10.3 3 Nordeste 8 Nordeste 0 -- -- 87
2018-05-02 08:00:00 8 2 Sudeste 7 Este 0 -- -- 90
2018-05-02 07:00:00 9.3 4 Este 5 Este 0 -- -- 89
2018-05-02 06:00:00 10.3 2 Este 5 Este 0 -- -- 90
2018-05-02 05:00:00 10.6 0 Calma 4 Este 0 -- -- 89
2018-05-02 04:00:00 10.6 0 Calma 7 Este 0 -- -- 89
2018-05-02 03:00:00 10.5 3 Este 6 Este 0 -- -- 88
2018-05-02 02:00:00 11.2 0 Calma 3 Este 0 -- -- 88
2018-05-02 01:00:00 12 0 Calma 3 Noroeste 0 -- -- 90
2018-05-02 00:00:00 12.2 2 Oeste 4 Oeste 0 -- -- 90
2018-05-01 23:00:00 12.1 2 Noroeste 6 Oeste 0 -- -- 91
2018-05-01 22:00:00 12.4 4 Noroeste 9 Oeste 0 -- -- 88
2018-05-01 21:00:00 12.7 4 Oeste 6 Oeste 0 -- -- 87
2018-05-01 20:00:00 13.1 4 Oeste 17 Oeste 0 -- -- 85
2018-05-01 19:00:00 13.9 8 Oeste 14 Oeste 0 -- -- 81
2018-05-01 18:00:00 13.8 4 Este 13 Este 0 -- -- 79
2018-05-01 17:00:00 14.2 9 Oeste 15 Oeste 0 -- -- 76
2018-05-01 16:00:00 15.3 6 Oeste 19 Oeste 0 -- -- 72
2018-05-01 15:00:00 15.3 13 Oeste 21 Oeste 0 -- -- 74
2018-05-01 14:00:00 15.9 8 Noroeste 37 Oeste 0 -- -- 71
2018-05-01 13:00:00 16 14 Oeste 21 Oeste 0 -- -- 68
2018-05-01 12:00:00 16.9 4 Oeste 12 Oeste 0 -- -- 62
2018-05-01 11:00:00 15 9 Oeste 15 Oeste 0 -- -- 65
2018-05-01 10:00:00 14.3 4 Oeste 9 Oeste 0 -- -- 66
2018-05-01 09:00:00 9 4 Este 12 Este 0 -- -- 85
2018-05-01 08:00:00 5.6 5 Este 9 Este 0 -- -- 92
2018-05-01 07:00:00 4.9 5 Este 9 Este 0 -- -- 92
2018-05-01 06:00:00 5.1 4 Sudeste 10 Este 0 -- -- 90
2018-05-01 05:00:00 5.1 5 Este 9 Este 0 -- -- 88
2018-05-01 04:00:00 5.9 4 Nordeste 8 Este 0 -- -- 89
2018-05-01 03:00:00 5.7 4 Este 9 Este 0 -- -- 88
2018-05-01 02:00:00 6.5 5 Este 9 Este 0 -- -- 87
2018-05-01 01:00:00 6.8 4 Este 8 Este 0 -- -- 85
2018-05-01 00:00:00 7.4 4 Este 9 Este 0 -- -- 84
2018-04-30 23:00:00 8.8 4 Este 6 Este 0 -- -- 81
2018-04-30 22:00:00 10.5 0 Calma 9 Sudeste 0 -- -- 76
2018-04-30 21:00:00 11.1 4 Este 12 Este 0 -- -- 75
2018-04-30 20:00:00 11.6 7 Sudeste 12 Sudeste 0 -- -- 78
2018-04-30 19:00:00 11.5 8 Sudeste 17 Sudeste 0 -- -- 79
2018-04-30 18:00:00 11.7 10 Este 17 Sudeste 0 -- -- 79
2018-04-30 17:00:00 11.8 10 Sudeste 20 Este 0 -- -- 77
2018-04-30 16:00:00 13 4 Sudeste 21 Sudeste 0 -- -- 71
2018-04-30 15:00:00 12.7 8 Este 21 Sudeste 0 -- -- 70
2018-04-30 14:00:00 11.8 10 Este 25 Este 0 -- -- 73
2018-04-30 13:00:00 12.4 3 Este 31 Este 0 -- -- 73
2018-04-30 12:00:00 12 9 Sudeste 19 Sudeste 0 -- -- 74
2018-04-30 11:00:00 11.6 9 Sudeste 21 Este 0 -- -- 72
2018-04-30 10:00:00 10.8 11 Este 32 Este 0 -- -- 71
2018-04-30 09:00:00 10.8 13 Este 23 Este 0 -- -- 64
2018-04-30 08:00:00 8.7 10 Sudeste 28 Sudeste 0 -- -- 72
2018-04-30 07:00:00 8.8 13 Este 27 Este 0 -- -- 69
2018-04-30 06:00:00 8.9 16 Sudeste 28 Sudeste 0 -- -- 66
2018-04-30 05:00:00 9.1 11 Sudeste 28 Sudeste 0 -- -- 78
2018-04-30 04:00:00 9.7 18 Este 31 Este 0 -- -- 77
2018-04-30 03:00:00 9.9 13 Este 26 Este 0 -- -- 76
2018-04-30 02:00:00 9.9 10 Este 31 Sudeste 0 -- -- 79
2018-04-30 01:00:00 10 17 Sudeste 35 Este 0 -- -- 80
2018-04-30 00:00:00 10 21 Este 34 Este 0 -- -- 76
2018-04-29 23:00:00 10.2 19 Este 32 Nordeste 0 -- -- 74
2018-04-29 22:00:00 10 13 Este 23 Este 0 -- -- 78
2018-04-29 21:00:00 10 10 Sudeste 22 Este 0 -- -- 82
2018-04-29 20:00:00 11.2 12 Este 28 Sudeste 0 -- -- 78
2018-04-29 19:00:00 11.7 14 Este 22 Nordeste 0 -- -- 76
2018-04-29 18:00:00 11.4 14 Este 29 Este 0 -- -- 77
2018-04-29 17:00:00 11.5 17 Este 33 Sudeste 0 -- -- 77
2018-04-29 16:00:00 12.1 18 Este 36 Este 0 -- -- 78
2018-04-29 15:00:00 13.5 20 Este 39 Este 0 -- -- 72
2018-04-29 14:00:00 13.9 24 Este 49 Sudeste 0 -- -- 67
2018-04-29 13:00:00 13.7 23 Este 45 Este 0 -- -- 66
2018-04-29 12:00:00 13 27 Este 50 Este 0 -- -- 71
2018-04-29 11:00:00 11.6 31 Este 55 Este 0 -- -- 80
2018-04-29 10:00:00 10.1 27 Este 47 Este 0 -- -- 87
2018-04-29 09:00:00 10.5 21 Este 42 Este 0 -- -- 76
2018-04-29 08:00:00 10 22 Este 51 Este 0 -- -- 69
2018-04-29 07:00:00 9.4 24 Este 41 Este 0 -- -- 78
2018-04-29 06:00:00 9.8 21 Este 40 Este 0 -- -- 83
2018-04-29 05:00:00 10 23 Este 46 Este 0 -- -- 87
2018-04-29 04:00:00 10.2 25 Este 46 Este 0 -- -- 90
2018-04-29 03:00:00 10.7 27 Este 49 Este 0 -- -- 86
2018-04-29 02:00:00 10.8 21 Este 42 Este 0 -- -- 89
2018-04-29 01:00:00 11.4 24 Este 41 Este 0 -- -- 88
2018-04-29 00:00:00 11.6 20 Este 40 Este 0 -- -- 83
2018-04-28 23:00:00 11.3 18 Este 35 Este 0 -- -- 86
2018-04-28 22:00:00 11.6 14 Sudeste 27 Este 0 -- -- 86
2018-04-28 21:00:00 12.4 14 Este 24 Sudeste 0 -- -- 86
2018-04-28 20:00:00 13.3 13 Sudeste 23 Este 0 -- -- 85
2018-04-28 19:00:00 15.5 5 Noroeste 23 Oeste 0 -- -- 76
2018-04-28 18:00:00 16.1 12 Oeste 26 Sudeste 0 -- -- 74
2018-04-28 17:00:00 16.4 7 Oeste 20 Oeste 0 -- -- 72
2018-04-28 16:00:00 17.4 11 Oeste 26 Oeste 0 -- -- 69
2018-04-28 15:00:00 18.2 14 Oeste 25 Oeste 0 -- -- 68
2018-04-28 14:00:00 18.1 15 Oeste 23 Oeste 0 -- -- 68
2018-04-28 13:00:00 17.9 10 Oeste 21 Oeste 0 -- -- 65
2018-04-28 12:00:00 18.3 10 Oeste 17 Oeste 0 -- -- 64
2018-04-28 11:00:00 18.3 5 Oeste 17 Oeste 0 -- -- 60
2018-04-28 10:00:00 17.1 6 Noroeste 13 Oeste 0 -- -- 52
2018-04-28 09:00:00 11.4 6 Este 11 Nordeste 0 -- -- 55
2018-04-28 08:00:00 9.2 2 Este 8 Este 0 -- -- 55
2018-04-28 07:00:00 10.2 4 Este 10 Este 0 -- -- 49
2018-04-28 06:00:00 10.7 5 Este 13 Este 0 -- -- 48
2018-04-28 05:00:00 14.2 9 Este 27 Este 0 -- -- 35
2018-04-28 04:00:00 13.9 11 Este 24 Este 0 -- -- 37
2018-04-28 03:00:00 12.9 6 Este 24 Este 0 -- -- 51
2018-04-28 02:00:00 15.3 9 Nordeste 41 Este 0 -- -- 46
2018-04-28 01:00:00 16 24 Este 42 Este 0 -- -- 32
2018-04-28 00:00:00 16.5 17 Este 36 Este 0 -- -- 30